sensor_id;sensor_type;location;lat;lon;timestamp;temperature;humidity
53876;DHT22;39789;53.216;5.624;2023-05-23T00:02:20;12.60;92.10
53876;DHT22;39789;53.216;5.624;2023-05-23T00:04:46;12.60;92.10
53876;DHT22;39789;53.216;5.624;2023-05-23T00:07:11;12.60;92.20
53876;DHT22;39789;53.216;5.624;2023-05-23T00:09:37;12.60;92.10
53876;DHT22;39789;53.216;5.624;2023-05-23T00:12:04;12.70;92.10
53876;DHT22;39789;53.216;5.624;2023-05-23T00:14:29;12.70;92.00
53876;DHT22;39789;53.216;5.624;2023-05-23T00:16:58;12.70;91.90
53876;DHT22;39789;53.216;5.624;2023-05-23T00:19:24;12.70;91.90
53876;DHT22;39789;53.216;5.624;2023-05-23T00:21:50;12.70;91.80
53876;DHT22;39789;53.216;5.624;2023-05-23T00:24:18;12.70;91.50
53876;DHT22;39789;53.216;5.624;2023-05-23T00:26:45;12.70;91.50
53876;DHT22;39789;53.216;5.624;2023-05-23T00:29:11;12.70;91.20
53876;DHT22;39789;53.216;5.624;2023-05-23T00:31:43;12.60;91.20
53876;DHT22;39789;53.216;5.624;2023-05-23T00:34:11;12.60;91.30
53876;DHT22;39789;53.216;5.624;2023-05-23T00:36:38;12.60;91.40
53876;DHT22;39789;53.216;5.624;2023-05-23T00:39:03;12.60;91.40
53876;DHT22;39789;53.216;5.624;2023-05-23T00:41:29;12.70;91.40
53876;DHT22;39789;53.216;5.624;2023-05-23T00:43:56;12.70;91.50
53876;DHT22;39789;53.216;5.624;2023-05-23T00:46:24;12.60;91.40
53876;DHT22;39789;53.216;5.624;2023-05-23T00:48:50;12.60;91.30
53876;DHT22;39789;53.216;5.624;2023-05-23T00:51:17;12.60;91.30
53876;DHT22;39789;53.216;5.624;2023-05-23T00:53:42;12.60;91.10
53876;DHT22;39789;53.216;5.624;2023-05-23T00:56:08;13.60;91.40
53876;DHT22;39789;53.216;5.624;2023-05-23T00:58:34;12.60;91.00
53876;DHT22;39789;53.216;5.624;2023-05-23T01:01:00;12.60;90.90
53876;DHT22;39789;53.216;5.624;2023-05-23T01:03:26;12.60;90.80
53876;DHT22;39789;53.216;5.624;2023-05-23T01:05:53;12.60;90.60
53876;DHT22;39789;53.216;5.624;2023-05-23T01:08:20;12.60;90.40
53876;DHT22;39789;53.216;5.624;2023-05-23T01:10:46;12.60;90.20
53876;DHT22;39789;53.216;5.624;2023-05-23T01:13:36;12.60;90.20
53876;DHT22;39789;53.216;5.624;2023-05-23T01:16:13;12.60;90.20
53876;DHT22;39789;53.216;5.624;2023-05-23T01:21:14;12.60;90.30
53876;DHT22;39789;53.216;5.624;2023-05-23T01:26:31;12.50;90.20
53876;DHT22;39789;53.216;5.624;2023-05-23T01:29:05;12.60;90.30
53876;DHT22;39789;53.216;5.624;2023-05-23T01:31:36;12.60;90.30
53876;DHT22;39789;53.216;5.624;2023-05-23T01:34:04;12.50;90.40
53876;DHT22;39789;53.216;5.624;2023-05-23T01:36:32;12.50;90.30
53876;DHT22;39789;53.216;5.624;2023-05-23T01:39:00;12.60;90.30
53876;DHT22;39789;53.216;5.624;2023-05-23T01:41:25;12.50;90.20
53876;DHT22;39789;53.216;5.624;2023-05-23T01:43:53;12.70;89.80
53876;DHT22;39789;53.216;5.624;2023-05-23T01:46:20;12.50;90.00
53876;DHT22;39789;53.216;5.624;2023-05-23T01:48:46;12.40;90.10
53876;DHT22;39789;53.216;5.624;2023-05-23T01:51:13;12.40;89.90
53876;DHT22;39789;53.216;5.624;2023-05-23T01:53:39;12.30;89.60
53876;DHT22;39789;53.216;5.624;2023-05-23T01:56:05;12.40;89.80
53876;DHT22;39789;53.216;5.624;2023-05-23T01:58:31;12.30;89.90
53876;DHT22;39789;53.216;5.624;2023-05-23T02:00:57;12.30;89.70
53876;DHT22;39789;53.216;5.624;2023-05-23T02:03:23;12.30;89.90
53876;DHT22;39789;53.216;5.624;2023-05-23T02:05:48;12.30;90.00
53876;DHT22;39789;53.216;5.624;2023-05-23T02:08:14;12.20;89.70
53876;DHT22;39789;53.216;5.624;2023-05-23T02:10:40;12.20;89.70
53876;DHT22;39789;53.216;5.624;2023-05-23T02:13:05;12.20;89.60
53876;DHT22;39789;53.216;5.624;2023-05-23T02:15:31;12.20;89.60
53876;DHT22;39789;53.216;5.624;2023-05-23T02:17:56;11.70;89.50
53876;DHT22;39789;53.216;5.624;2023-05-23T02:20:22;12.30;90.00
53876;DHT22;39789;53.216;5.624;2023-05-23T02:22:48;12.20;90.00
53876;DHT22;39789;53.216;5.624;2023-05-23T02:25:13;12.20;89.70
53876;DHT22;39789;53.216;5.624;2023-05-23T02:27:40;12.20;89.70
53876;DHT22;39789;53.216;5.624;2023-05-23T02:30:06;12.20;89.80
53876;DHT22;39789;53.216;5.624;2023-05-23T02:32:32;12.20;89.90
53876;DHT22;39789;53.216;5.624;2023-05-23T02:34:57;12.20;90.00
53876;DHT22;39789;53.216;5.624;2023-05-23T02:37:24;12.20;89.60
53876;DHT22;39789;53.216;5.624;2023-05-23T02:39:49;12.20;89.70
53876;DHT22;39789;53.216;5.624;2023-05-23T02:42:15;12.20;89.90
53876;DHT22;39789;53.216;5.624;2023-05-23T02:44:40;12.20;89.70
53876;DHT22;39789;53.216;5.624;2023-05-23T02:47:06;12.20;89.60
53876;DHT22;39789;53.216;5.624;2023-05-23T02:49:31;12.10;89.30
53876;DHT22;39789;53.216;5.624;2023-05-23T02:51:57;12.10;89.30
53876;DHT22;39789;53.216;5.624;2023-05-23T02:54:23;12.10;89.50
53876;DHT22;39789;53.216;5.624;2023-05-23T02:56:48;12.20;89.90
53876;DHT22;39789;53.216;5.624;2023-05-23T02:59:16;12.10;89.60
53876;DHT22;39789;53.216;5.624;2023-05-23T03:01:42;12.10;89.60
53876;DHT22;39789;53.216;5.624;2023-05-23T03:04:07;12.10;90.00
53876;DHT22;39789;53.216;5.624;2023-05-23T03:06:33;12.00;90.00
53876;DHT22;39789;53.216;5.624;2023-05-23T03:09:01;12.00;90.00
53876;DHT22;39789;53.216;5.624;2023-05-23T03:11:26;11.90;89.90
53876;DHT22;39789;53.216;5.624;2023-05-23T03:13:54;11.90;90.00
53876;DHT22;39789;53.216;5.624;2023-05-23T03:16:21;11.90;89.80
53876;DHT22;39789;53.216;5.624;2023-05-23T03:18:47;11.90;90.00
53876;DHT22;39789;53.216;5.624;2023-05-23T03:21:12;12.30;90.10
53876;DHT22;39789;53.216;5.624;2023-05-23T03:23:38;11.80;90.00
53876;DHT22;39789;53.216;5.624;2023-05-23T03:26:03;11.80;89.70
53876;DHT22;39789;53.216;5.624;2023-05-23T03:28:30;11.80;89.70
53876;DHT22;39789;53.216;5.624;2023-05-23T03:30:57;11.70;89.80
53876;DHT22;39789;53.216;5.624;2023-05-23T03:33:22;11.70;89.20
53876;DHT22;39789;53.216;5.624;2023-05-23T03:35:49;11.70;88.30
53876;DHT22;39789;53.216;5.624;2023-05-23T03:38:15;11.60;88.20
53876;DHT22;39789;53.216;5.624;2023-05-23T03:40:40;11.60;88.40
53876;DHT22;39789;53.216;5.624;2023-05-23T03:43:06;11.60;88.00
53876;DHT22;39789;53.216;5.624;2023-05-23T03:45:32;11.60;88.00
53876;DHT22;39789;53.216;5.624;2023-05-23T03:47:58;11.60;88.00
53876;DHT22;39789;53.216;5.624;2023-05-23T03:50:24;11.50;88.30
53876;DHT22;39789;53.216;5.624;2023-05-23T03:52:51;11.50;88.80
53876;DHT22;39789;53.216;5.624;2023-05-23T03:55:16;11.50;89.10
53876;DHT22;39789;53.216;5.624;2023-05-23T03:57:47;11.40;88.80
53876;DHT22;39789;53.216;5.624;2023-05-23T04:00:13;11.40;88.30
53876;DHT22;39789;53.216;5.624;2023-05-23T04:02:39;11.40;88.90
53876;DHT22;39789;53.216;5.624;2023-05-23T04:05:05;11.40;89.50
53876;DHT22;39789;53.216;5.624;2023-05-23T04:07:32;11.40;89.60
53876;DHT22;39789;53.216;5.624;2023-05-23T04:10:02;11.30;89.70
53876;DHT22;39789;53.216;5.624;2023-05-23T04:12:27;11.30;88.70
53876;DHT22;39789;53.216;5.624;2023-05-23T04:14:55;11.20;87.90
53876;DHT22;39789;53.216;5.624;2023-05-23T04:17:22;11.20;88.00
53876;DHT22;39789;53.216;5.624;2023-05-23T04:19:51;11.10;87.50
53876;DHT22;39789;53.216;5.624;2023-05-23T04:22:17;11.20;87.30
53876;DHT22;39789;53.216;5.624;2023-05-23T04:24:42;11.20;87.60
53876;DHT22;39789;53.216;5.624;2023-05-23T04:27:08;11.20;87.50
53876;DHT22;39789;53.216;5.624;2023-05-23T04:29:34;11.20;87.60
53876;DHT22;39789;53.216;5.624;2023-05-23T04:32:01;11.20;88.00
53876;DHT22;39789;53.216;5.624;2023-05-23T04:34:26;11.20;86.80
53876;DHT22;39789;53.216;5.624;2023-05-23T04:36:52;11.10;86.50
53876;DHT22;39789;53.216;5.624;2023-05-23T04:39:18;11.10;86.40
53876;DHT22;39789;53.216;5.624;2023-05-23T04:41:44;11.10;86.20
53876;DHT22;39789;53.216;5.624;2023-05-23T04:44:11;11.10;86.60
53876;DHT22;39789;53.216;5.624;2023-05-23T04:46:36;11.10;87.00
53876;DHT22;39789;53.216;5.624;2023-05-23T04:49:07;11.20;87.10
53876;DHT22;39789;53.216;5.624;2023-05-23T04:51:33;11.10;86.60
53876;DHT22;39789;53.216;5.624;2023-05-23T04:54:00;11.10;86.70
53876;DHT22;39789;53.216;5.624;2023-05-23T04:56:25;11.10;87.10
53876;DHT22;39789;53.216;5.624;2023-05-23T04:58:52;11.00;88.40
53876;DHT22;39789;53.216;5.624;2023-05-23T05:01:18;11.00;88.20
53876;DHT22;39789;53.216;5.624;2023-05-23T05:03:44;11.00;88.90
53876;DHT22;39789;53.216;5.624;2023-05-23T05:06:10;11.00;88.50
53876;DHT22;39789;53.216;5.624;2023-05-23T05:08:35;10.90;88.10
53876;DHT22;39789;53.216;5.624;2023-05-23T05:11:01;10.90;87.90
53876;DHT22;39789;53.216;5.624;2023-05-23T05:13:27;10.90;87.70
53876;DHT22;39789;53.216;5.624;2023-05-23T05:15:52;10.90;87.30
53876;DHT22;39789;53.216;5.624;2023-05-23T05:18:18;10.90;86.70
53876;DHT22;39789;53.216;5.624;2023-05-23T05:20:44;10.90;86.40
53876;DHT22;39789;53.216;5.624;2023-05-23T05:23:09;11.00;86.20
53876;DHT22;39789;53.216;5.624;2023-05-23T05:25:35;11.00;85.80
53876;DHT22;39789;53.216;5.624;2023-05-23T05:28:02;11.10;85.30
53876;DHT22;39789;53.216;5.624;2023-05-23T05:30:30;11.00;84.00
53876;DHT22;39789;53.216;5.624;2023-05-23T05:32:59;11.00;83.50
53876;DHT22;39789;53.216;5.624;2023-05-23T05:35:31;11.00;83.30
53876;DHT22;39789;53.216;5.624;2023-05-23T05:37:57;11.10;83.40
53876;DHT22;39789;53.216;5.624;2023-05-23T05:40:23;11.20;82.40
53876;DHT22;39789;53.216;5.624;2023-05-23T05:42:49;11.20;82.30
53876;DHT22;39789;53.216;5.624;2023-05-23T05:45:15;11.30;82.40
53876;DHT22;39789;53.216;5.624;2023-05-23T05:47:41;11.40;82.70
53876;DHT22;39789;53.216;5.624;2023-05-23T05:50:07;11.50;81.90
53876;DHT22;39789;53.216;5.624;2023-05-23T05:52:33;11.60;81.20
53876;DHT22;39789;53.216;5.624;2023-05-23T05:55:03;11.60;80.80
53876;DHT22;39789;53.216;5.624;2023-05-23T05:57:29;11.60;80.70
53876;DHT22;39789;53.216;5.624;2023-05-23T05:59:55;11.60;80.20
53876;DHT22;39789;53.216;5.624;2023-05-23T06:02:20;11.70;81.10
53876;DHT22;39789;53.216;5.624;2023-05-23T06:04:46;11.80;80.70
53876;DHT22;39789;53.216;5.624;2023-05-23T06:07:12;12.00;80.60
53876;DHT22;39789;53.216;5.624;2023-05-23T06:09:37;11.80;80.20
53876;DHT22;39789;53.216;5.624;2023-05-23T06:12:03;11.90;80.10
53876;DHT22;39789;53.216;5.624;2023-05-23T06:14:29;11.90;80.20
53876;DHT22;39789;53.216;5.624;2023-05-23T06:16:54;12.00;78.70
53876;DHT22;39789;53.216;5.624;2023-05-23T06:19:20;12.00;78.50
53876;DHT22;39789;53.216;5.624;2023-05-23T06:21:45;12.00;78.20
53876;DHT22;39789;53.216;5.624;2023-05-23T06:24:11;12.10;78.90
53876;DHT22;39789;53.216;5.624;2023-05-23T06:26:37;12.10;78.10
53876;DHT22;39789;53.216;5.624;2023-05-23T06:29:03;12.10;77.40
53876;DHT22;39789;53.216;5.624;2023-05-23T06:31:28;12.10;77.40
53876;DHT22;39789;53.216;5.624;2023-05-23T06:33:54;12.10;77.40
53876;DHT22;39789;53.216;5.624;2023-05-23T06:36:20;12.10;77.40
53876;DHT22;39789;53.216;5.624;2023-05-23T06:38:46;12.10;77.20
53876;DHT22;39789;53.216;5.624;2023-05-23T06:41:12;12.10;77.30
53876;DHT22;39789;53.216;5.624;2023-05-23T06:43:37;12.00;76.50
53876;DHT22;39789;53.216;5.624;2023-05-23T06:46:03;12.00;77.30
53876;DHT22;39789;53.216;5.624;2023-05-23T06:48:29;12.00;78.20
53876;DHT22;39789;53.216;5.624;2023-05-23T06:50:54;12.10;78.40
53876;DHT22;39789;53.216;5.624;2023-05-23T06:53:20;12.10;77.80
53876;DHT22;39789;53.216;5.624;2023-05-23T06:55:45;12.10;77.00
53876;DHT22;39789;53.216;5.624;2023-05-23T06:58:11;12.10;76.40
53876;DHT22;39789;53.216;5.624;2023-05-23T07:00:37;12.10;77.40
53876;DHT22;39789;53.216;5.624;2023-05-23T07:03:03;12.30;77.40
53876;DHT22;39789;53.216;5.624;2023-05-23T07:05:28;12.40;77.10
53876;DHT22;39789;53.216;5.624;2023-05-23T07:07:54;12.50;76.50
53876;DHT22;39789;53.216;5.624;2023-05-23T07:10:20;12.50;76.80
53876;DHT22;39789;53.216;5.624;2023-05-23T07:12:46;12.50;76.60
53876;DHT22;39789;53.216;5.624;2023-05-23T07:15:12;12.40;75.10
53876;DHT22;39789;53.216;5.624;2023-05-23T07:17:39;12.40;75.30
53876;DHT22;39789;53.216;5.624;2023-05-23T07:20:05;12.50;74.30
53876;DHT22;39789;53.216;5.624;2023-05-23T07:22:31;12.60;74.50
53876;DHT22;39789;53.216;5.624;2023-05-23T07:24:56;12.80;75.40
53876;DHT22;39789;53.216;5.624;2023-05-23T07:27:22;12.90;74.10
53876;DHT22;39789;53.216;5.624;2023-05-23T07:29:47;12.90;74.00
53876;DHT22;39789;53.216;5.624;2023-05-23T07:32:13;12.80;73.40
53876;DHT22;39789;53.216;5.624;2023-05-23T07:34:39;12.60;74.10
53876;DHT22;39789;53.216;5.624;2023-05-23T07:37:05;12.50;73.90
53876;DHT22;39789;53.216;5.624;2023-05-23T07:39:31;12.60;74.40
53876;DHT22;39789;53.216;5.624;2023-05-23T07:41:56;12.90;74.50
53876;DHT22;39789;53.216;5.624;2023-05-23T07:44:22;13.30;73.00
53876;DHT22;39789;53.216;5.624;2023-05-23T07:46:47;13.30;71.60
53876;DHT22;39789;53.216;5.624;2023-05-23T07:49:13;13.30;71.40
53876;DHT22;39789;53.216;5.624;2023-05-23T07:51:39;13.10;71.20
53876;DHT22;39789;53.216;5.624;2023-05-23T07:54:06;12.90;72.40
53876;DHT22;39789;53.216;5.624;2023-05-23T07:56:31;13.00;72.90
53876;DHT22;39789;53.216;5.624;2023-05-23T07:58:57;12.90;73.00
53876;DHT22;39789;53.216;5.624;2023-05-23T08:01:23;12.80;73.00
53876;DHT22;39789;53.216;5.624;2023-05-23T08:03:49;12.70;72.60
53876;DHT22;39789;53.216;5.624;2023-05-23T08:06:15;13.10;72.90
53876;DHT22;39789;53.216;5.624;2023-05-23T08:08:41;13.60;72.60
53876;DHT22;39789;53.216;5.624;2023-05-23T08:11:08;13.90;71.40
53876;DHT22;39789;53.216;5.624;2023-05-23T08:13:33;14.00;70.30
53876;DHT22;39789;53.216;5.624;2023-05-23T08:16:00;13.70;67.60
53876;DHT22;39789;53.216;5.624;2023-05-23T08:18:25;13.60;69.30
53876;DHT22;39789;53.216;5.624;2023-05-23T08:20:51;13.70;69.30
53876;DHT22;39789;53.216;5.624;2023-05-23T08:23:16;13.70;68.80
53876;DHT22;39789;53.216;5.624;2023-05-23T08:25:42;13.60;69.30
53876;DHT22;39789;53.216;5.624;2023-05-23T08:28:08;13.50;69.90
53876;DHT22;39789;53.216;5.624;2023-05-23T08:30:33;13.40;70.20
53876;DHT22;39789;53.216;5.624;2023-05-23T08:32:59;13.40;70.70
53876;DHT22;39789;53.216;5.624;2023-05-23T08:35:29;13.30;70.40
53876;DHT22;39789;53.216;5.624;2023-05-23T08:38:00;13.40;71.60
53876;DHT22;39789;53.216;5.624;2023-05-23T08:40:26;13.50;70.00
53876;DHT22;39789;53.216;5.624;2023-05-23T08:42:54;13.30;70.80
53876;DHT22;39789;53.216;5.624;2023-05-23T08:45:20;13.20;70.80
53876;DHT22;39789;53.216;5.624;2023-05-23T08:47:46;13.30;71.40
53876;DHT22;39789;53.216;5.624;2023-05-23T08:50:14;13.40;70.40
53876;DHT22;39789;53.216;5.624;2023-05-23T08:52:54;13.40;69.30
53876;DHT22;39789;53.216;5.624;2023-05-23T08:55:23;13.50;68.50
53876;DHT22;39789;53.216;5.624;2023-05-23T08:57:51;13.40;69.20
53876;DHT22;39789;53.216;5.624;2023-05-23T09:00:18;13.30;68.50
53876;DHT22;39789;53.216;5.624;2023-05-23T09:02:44;13.30;68.90
53876;DHT22;39789;53.216;5.624;2023-05-23T09:05:11;13.30;70.70
53876;DHT22;39789;53.216;5.624;2023-05-23T09:07:38;13.30;71.40
53876;DHT22;39789;53.216;5.624;2023-05-23T09:10:05;13.30;71.40
53876;DHT22;39789;53.216;5.624;2023-05-23T09:12:33;13.60;71.80
53876;DHT22;39789;53.216;5.624;2023-05-23T09:14:58;13.80;71.00
53876;DHT22;39789;53.216;5.624;2023-05-23T09:17:24;13.70;69.10
53876;DHT22;39789;53.216;5.624;2023-05-23T09:19:50;13.50;69.90
53876;DHT22;39789;53.216;5.624;2023-05-23T09:22:16;13.30;70.40
53876;DHT22;39789;53.216;5.624;2023-05-23T09:24:49;13.40;70.10
53876;DHT22;39789;53.216;5.624;2023-05-23T09:27:15;13.50;68.90
53876;DHT22;39789;53.216;5.624;2023-05-23T09:29:41;13.40;69.60
53876;DHT22;39789;53.216;5.624;2023-05-23T09:32:14;13.40;70.60
53876;DHT22;39789;53.216;5.624;2023-05-23T09:35:02;13.50;69.20
53876;DHT22;39789;53.216;5.624;2023-05-23T09:37:34;13.70;68.50
53876;DHT22;39789;53.216;5.624;2023-05-23T09:40:00;13.80;69.20
53876;DHT22;39789;53.216;5.624;2023-05-23T09:42:32;13.90;68.00
53876;DHT22;39789;53.216;5.624;2023-05-23T09:44:59;14.00;67.40
53876;DHT22;39789;53.216;5.624;2023-05-23T09:47:24;14.10;67.20
53876;DHT22;39789;53.216;5.624;2023-05-23T09:49:51;14.20;67.10
53876;DHT22;39789;53.216;5.624;2023-05-23T09:52:17;14.20;66.60
53876;DHT22;39789;53.216;5.624;2023-05-23T09:54:45;14.10;64.80
53876;DHT22;39789;53.216;5.624;2023-05-23T09:57:11;13.80;65.10
53876;DHT22;39789;53.216;5.624;2023-05-23T09:59:39;13.70;65.80
53876;DHT22;39789;53.216;5.624;2023-05-23T10:02:10;13.50;67.10
53876;DHT22;39789;53.216;5.624;2023-05-23T10:04:38;13.40;68.00
53876;DHT22;39789;53.216;5.624;2023-05-23T10:07:11;13.30;67.60
53876;DHT22;39789;53.216;5.624;2023-05-23T10:09:39;13.20;67.60
53876;DHT22;39789;53.216;5.624;2023-05-23T10:12:21;13.40;69.00
53876;DHT22;39789;53.216;5.624;2023-05-23T10:15:03;13.50;69.10
53876;DHT22;39789;53.216;5.624;2023-05-23T10:20:19;13.60;67.50
53876;DHT22;39789;53.216;5.624;2023-05-23T10:22:47;13.50;67.90
53876;DHT22;39789;53.216;5.624;2023-05-23T10:25:14;13.50;69.10
53876;DHT22;39789;53.216;5.624;2023-05-23T10:27:41;13.40;68.40
53876;DHT22;39789;53.216;5.624;2023-05-23T10:30:08;13.40;69.10
53876;DHT22;39789;53.216;5.624;2023-05-23T10:32:35;13.50;67.80
53876;DHT22;39789;53.216;5.624;2023-05-23T10:35:06;13.50;67.10
53876;DHT22;39789;53.216;5.624;2023-05-23T10:37:44;13.50;67.80
53876;DHT22;39789;53.216;5.624;2023-05-23T10:43:15;13.50;67.40
53876;DHT22;39789;53.216;5.624;2023-05-23T10:45:42;13.60;66.40
53876;DHT22;39789;53.216;5.624;2023-05-23T10:48:30;13.60;67.00
53876;DHT22;39789;53.216;5.624;2023-05-23T10:51:13;13.50;68.70
53876;DHT22;39789;53.216;5.624;2023-05-23T10:53:44;13.40;69.50
53876;DHT22;39789;53.216;5.624;2023-05-23T10:56:30;13.20;70.50
53876;DHT22;39789;53.216;5.624;2023-05-23T10:58:56;13.10;70.50
53876;DHT22;39789;53.216;5.624;2023-05-23T11:01:25;13.10;70.90
53876;DHT22;39789;53.216;5.624;2023-05-23T11:03:52;13.00;70.60
53876;DHT22;39789;53.216;5.624;2023-05-23T11:06:37;13.00;69.40
53876;DHT22;39789;53.216;5.624;2023-05-23T11:09:14;13.40;68.40
53876;DHT22;39789;53.216;5.624;2023-05-23T11:14:19;13.70;66.60
53876;DHT22;39789;53.216;5.624;2023-05-23T11:16:45;13.80;67.40
53876;DHT22;39789;53.216;5.624;2023-05-23T11:22:00;14.10;68.70
53876;DHT22;39789;53.216;5.624;2023-05-23T11:24:52;14.10;68.50
53876;DHT22;39789;53.216;5.624;2023-05-23T11:27:27;13.80;64.10
53876;DHT22;39789;53.216;5.624;2023-05-23T11:29:57;13.90;65.50
53876;DHT22;39789;53.216;5.624;2023-05-23T11:32:24;13.80;64.60
53876;DHT22;39789;53.216;5.624;2023-05-23T11:34:51;13.90;65.60
53876;DHT22;39789;53.216;5.624;2023-05-23T11:37:18;13.80;64.80
53876;DHT22;39789;53.216;5.624;2023-05-23T11:39:43;13.80;63.70
53876;DHT22;39789;53.216;5.624;2023-05-23T11:42:09;13.90;64.90
53876;DHT22;39789;53.216;5.624;2023-05-23T11:44:35;14.00;64.80
53876;DHT22;39789;53.216;5.624;2023-05-23T11:47:07;13.90;64.80
53876;DHT22;39789;53.216;5.624;2023-05-23T11:49:37;13.70;65.00
53876;DHT22;39789;53.216;5.624;2023-05-23T11:52:04;13.50;64.50
53876;DHT22;39789;53.216;5.624;2023-05-23T11:54:31;13.50;66.10
53876;DHT22;39789;53.216;5.624;2023-05-23T11:56:57;13.70;65.60
53876;DHT22;39789;53.216;5.624;2023-05-23T11:59:23;13.80;65.70
53876;DHT22;39789;53.216;5.624;2023-05-23T12:01:50;14.30;64.10
53876;DHT22;39789;53.216;5.624;2023-05-23T12:04:16;14.10;64.10
53876;DHT22;39789;53.216;5.624;2023-05-23T12:06:44;14.10;62.30
53876;DHT22;39789;53.216;5.624;2023-05-23T12:09:11;13.90;63.90
53876;DHT22;39789;53.216;5.624;2023-05-23T12:11:38;13.70;64.60
53876;DHT22;39789;53.216;5.624;2023-05-23T12:14:05;13.90;65.80
53876;DHT22;39789;53.216;5.624;2023-05-23T12:16:34;13.90;65.30
53876;DHT22;39789;53.216;5.624;2023-05-23T12:19:02;13.80;64.50
53876;DHT22;39789;53.216;5.624;2023-05-23T12:21:47;13.70;64.20
53876;DHT22;39789;53.216;5.624;2023-05-23T12:24:21;13.60;65.00
53876;DHT22;39789;53.216;5.624;2023-05-23T12:26:57;13.60;64.40
53876;DHT22;39789;53.216;5.624;2023-05-23T12:29:34;13.70;64.60
53876;DHT22;39789;53.216;5.624;2023-05-23T12:32:04;13.80;64.50
53876;DHT22;39789;53.216;5.624;2023-05-23T12:34:30;13.80;64.90
53876;DHT22;39789;53.216;5.624;2023-05-23T12:36:59;13.90;65.70
53876;DHT22;39789;53.216;5.624;2023-05-23T12:39:27;13.80;62.80
53876;DHT22;39789;53.216;5.624;2023-05-23T12:41:55;13.70;63.80
53876;DHT22;39789;53.216;5.624;2023-05-23T12:44:31;13.90;64.20
53876;DHT22;39789;53.216;5.624;2023-05-23T12:46:56;13.60;63.80
53876;DHT22;39789;53.216;5.624;2023-05-23T12:49:22;13.60;62.20
53876;DHT22;39789;53.216;5.624;2023-05-23T12:51:47;13.60;63.00
53876;DHT22;39789;53.216;5.624;2023-05-23T12:54:13;13.50;64.50
53876;DHT22;39789;53.216;5.624;2023-05-23T12:56:39;13.40;64.90
53876;DHT22;39789;53.216;5.624;2023-05-23T12:59:04;13.60;65.70
53876;DHT22;39789;53.216;5.624;2023-05-23T13:01:30;13.80;63.90
53876;DHT22;39789;53.216;5.624;2023-05-23T13:03:56;14.00;63.30
53876;DHT22;39789;53.216;5.624;2023-05-23T13:06:21;14.20;62.20
53876;DHT22;39789;53.216;5.624;2023-05-23T13:08:47;14.60;59.90
53876;DHT22;39789;53.216;5.624;2023-05-23T13:11:15;14.30;62.30
53876;DHT22;39789;53.216;5.624;2023-05-23T13:13:41;14.30;62.90
53876;DHT22;39789;53.216;5.624;2023-05-23T13:16:06;14.10;61.30
53876;DHT22;39789;53.216;5.624;2023-05-23T13:18:32;14.00;62.20
53876;DHT22;39789;53.216;5.624;2023-05-23T13:20:58;14.10;60.90
53876;DHT22;39789;53.216;5.624;2023-05-23T13:23:23;13.90;60.10
53876;DHT22;39789;53.216;5.624;2023-05-23T13:25:50;13.60;62.50
53876;DHT22;39789;53.216;5.624;2023-05-23T13:28:16;13.70;63.60
53876;DHT22;39789;53.216;5.624;2023-05-23T13:30:41;13.80;62.50
53876;DHT22;39789;53.216;5.624;2023-05-23T13:33:07;13.90;63.70
53876;DHT22;39789;53.216;5.624;2023-05-23T13:35:33;13.90;61.90
53876;DHT22;39789;53.216;5.624;2023-05-23T13:37:58;13.80;62.20
53876;DHT22;39789;53.216;5.624;2023-05-23T13:40:24;13.80;61.30
53876;DHT22;39789;53.216;5.624;2023-05-23T13:42:50;13.90;61.00
53876;DHT22;39789;53.216;5.624;2023-05-23T13:45:16;14.00;60.90
53876;DHT22;39789;53.216;5.624;2023-05-23T13:47:42;13.90;61.30
53876;DHT22;39789;53.216;5.624;2023-05-23T13:50:08;14.00;62.00
53876;DHT22;39789;53.216;5.624;2023-05-23T13:52:35;13.90;61.30
53876;DHT22;39789;53.216;5.624;2023-05-23T13:55:01;13.90;59.60
53876;DHT22;39789;53.216;5.624;2023-05-23T13:57:27;13.90;59.10
53876;DHT22;39789;53.216;5.624;2023-05-23T13:59:53;13.80;58.20
53876;DHT22;39789;53.216;5.624;2023-05-23T14:02:18;13.80;60.20
53876;DHT22;39789;53.216;5.624;2023-05-23T14:04:44;13.50;61.70
53876;DHT22;39789;53.216;5.624;2023-05-23T14:07:09;13.50;63.40
53876;DHT22;39789;53.216;5.624;2023-05-23T14:09:35;13.60;61.90
53876;DHT22;39789;53.216;5.624;2023-05-23T14:12:00;13.80;60.60
53876;DHT22;39789;53.216;5.624;2023-05-23T14:14:26;14.00;61.20
53876;DHT22;39789;53.216;5.624;2023-05-23T14:16:52;13.90;60.50
53876;DHT22;39789;53.216;5.624;2023-05-23T14:19:18;14.00;61.10
53876;DHT22;39789;53.216;5.624;2023-05-23T14:21:44;14.00;62.60
53876;DHT22;39789;53.216;5.624;2023-05-23T14:24:12;14.20;61.80
53876;DHT22;39789;53.216;5.624;2023-05-23T14:26:38;14.10;60.20
53876;DHT22;39789;53.216;5.624;2023-05-23T14:29:03;13.80;59.50
53876;DHT22;39789;53.216;5.624;2023-05-23T14:31:29;13.90;60.60
53876;DHT22;39789;53.216;5.624;2023-05-23T14:33:55;14.10;60.40
53876;DHT22;39789;53.216;5.624;2023-05-23T14:36:21;14.10;59.50
53876;DHT22;39789;53.216;5.624;2023-05-23T14:38:46;14.20;58.90
53876;DHT22;39789;53.216;5.624;2023-05-23T14:41:15;14.30;59.10
53876;DHT22;39789;53.216;5.624;2023-05-23T14:43:40;14.20;60.20
53876;DHT22;39789;53.216;5.624;2023-05-23T14:46:06;13.80;60.00
53876;DHT22;39789;53.216;5.624;2023-05-23T14:48:31;13.50;60.60
53876;DHT22;39789;53.216;5.624;2023-05-23T14:50:57;13.20;60.90
53876;DHT22;39789;53.216;5.624;2023-05-23T14:53:29;13.20;61.50
53876;DHT22;39789;53.216;5.624;2023-05-23T14:55:55;13.20;62.00
53876;DHT22;39789;53.216;5.624;2023-05-23T14:58:22;13.30;60.90
53876;DHT22;39789;53.216;5.624;2023-05-23T15:00:47;13.20;61.50
53876;DHT22;39789;53.216;5.624;2023-05-23T15:03:13;13.00;59.60
53876;DHT22;39789;53.216;5.624;2023-05-23T15:05:40;12.90;61.00
53876;DHT22;39789;53.216;5.624;2023-05-23T15:08:05;12.80;62.40
53876;DHT22;39789;53.216;5.624;2023-05-23T15:10:31;13.00;63.00
53876;DHT22;39789;53.216;5.624;2023-05-23T15:12:57;13.30;62.90
53876;DHT22;39789;53.216;5.624;2023-05-23T15:15:23;13.70;62.80
53876;DHT22;39789;53.216;5.624;2023-05-23T15:17:49;13.80;61.60
53876;DHT22;39789;53.216;5.624;2023-05-23T15:20:15;13.60;60.80
53876;DHT22;39789;53.216;5.624;2023-05-23T15:22:41;13.60;60.80
53876;DHT22;39789;53.216;5.624;2023-05-23T15:25:07;13.60;60.80
53876;DHT22;39789;53.216;5.624;2023-05-23T15:27:33;13.50;60.20
53876;DHT22;39789;53.216;5.624;2023-05-23T15:29:59;13.50;59.90
53876;DHT22;39789;53.216;5.624;2023-05-23T15:32:24;13.40;60.20
53876;DHT22;39789;53.216;5.624;2023-05-23T15:34:50;13.20;60.90
53876;DHT22;39789;53.216;5.624;2023-05-23T15:37:16;13.10;61.10
53876;DHT22;39789;53.216;5.624;2023-05-23T15:39:41;13.00;62.20
53876;DHT22;39789;53.216;5.624;2023-05-23T15:42:07;13.10;62.20
53876;DHT22;39789;53.216;5.624;2023-05-23T15:44:33;13.20;62.00
53876;DHT22;39789;53.216;5.624;2023-05-23T15:46:58;13.20;62.00